createdAt,value
2022-07-25T00:00:28.386Z,11.23
2022-07-25T00:02:35.093Z,9.88
2022-07-25T00:04:43.781Z,11.55
2022-07-25T00:06:48.585Z,11.57
2022-07-25T00:08:52.990Z,11.10
2022-07-25T00:11:01.571Z,7.47
2022-07-25T00:13:06.496Z,11.35
2022-07-25T00:15:11.267Z,9.43
2022-07-25T00:17:20.067Z,11.73
2022-07-25T00:19:25.048Z,20.50
2022-07-25T00:21:29.874Z,17.10
2022-07-25T00:23:36.261Z,16.50
2022-07-25T00:25:40.929Z,16.50
2022-07-25T00:27:45.351Z,18.35
2022-07-25T00:29:53.732Z,12.52
2022-07-25T00:31:58.443Z,10.48
2022-07-25T00:34:03.280Z,14.73
2022-07-25T00:36:12.225Z,22.15
2022-07-25T00:38:16.866Z,39.75
2022-07-25T00:40:21.242Z,26.70
2022-07-25T00:42:29.978Z,13.52
2022-07-25T00:44:34.724Z,14.50
2022-07-25T00:46:41.499Z,25.92
2022-07-25T00:48:50.108Z,20.80
2022-07-25T00:50:54.982Z,24.17
2022-07-25T00:52:59.903Z,23.90
2022-07-25T00:55:08.428Z,15.73
2022-07-25T00:57:12.882Z,42.95
2022-07-25T00:59:18.377Z,25.13
2022-07-25T01:01:22.941Z,25.92
2022-07-25T01:03:27.893Z,20.80
2022-07-25T01:05:32.458Z,23.30
2022-07-25T01:07:41.524Z,20.00
2022-07-25T01:09:45.837Z,19.13
2022-07-25T01:11:50.369Z,29.27
2022-07-25T01:13:57.840Z,39.65
2022-07-25T01:16:03.753Z,19.38
2022-07-25T01:18:09.277Z,16.20
2022-07-25T01:20:22.249Z,12.77
2022-07-25T01:22:26.642Z,12.63
2022-07-25T01:24:36.408Z,15.98
2022-07-25T01:26:43.949Z,17.55
2022-07-25T01:28:48.398Z,11.68
2022-07-25T01:30:53.340Z,9.73
2022-07-25T01:33:00.842Z,11.95
2022-07-25T01:35:11.907Z,11.70
2022-07-25T01:37:23.949Z,12.13
2022-07-25T01:39:28.361Z,12.95
2022-07-25T01:41:33.194Z,10.32
2022-07-25T01:43:37.703Z,10.20
2022-07-25T01:45:42.594Z,9.35
2022-07-25T01:47:47.353Z,12.60
2022-07-25T01:49:52.269Z,11.68
2022-07-25T01:52:01.059Z,10.18
2022-07-25T01:54:06.674Z,7.72
2022-07-25T01:56:14.805Z,14.30
2022-07-25T01:58:23.545Z,9.77
2022-07-25T02:00:28.015Z,6.72
2022-07-25T02:02:32.285Z,10.07
2022-07-25T02:04:41.237Z,7.63
2022-07-25T02:06:45.899Z,11.13
2022-07-25T02:08:50.669Z,11.60
2022-07-25T02:10:59.113Z,11.57
2022-07-25T02:13:03.487Z,9.80
2022-07-25T02:15:08.507Z,9.18
2022-07-25T02:17:17.373Z,7.53
2022-07-25T02:19:22.146Z,8.23
2022-07-25T02:21:27.163Z,6.55
2022-07-25T02:23:36.310Z,6.13
2022-07-25T02:25:41.118Z,7.53
2022-07-25T02:27:45.344Z,6.55
2022-07-25T02:29:49.792Z,8.32
2022-07-25T02:31:54.225Z,9.45
2022-07-25T02:33:58.614Z,5.97
2022-07-25T02:36:07.512Z,7.70
2022-07-25T02:38:11.866Z,8.25
2022-07-25T02:40:16.503Z,8.05
2022-07-25T02:42:26.822Z,5.40
2022-07-25T02:44:32.523Z,7.20
2022-07-25T02:46:37.025Z,6.13
2022-07-25T02:48:45.526Z,8.25
2022-07-25T02:50:50.156Z,5.13
2022-07-25T02:52:54.578Z,7.95
2022-07-25T02:55:07.531Z,4.57
2022-07-25T02:57:16.021Z,8.02
2022-07-25T02:59:20.620Z,7.50
2022-07-25T03:01:29.108Z,6.43
2022-07-25T03:03:34.027Z,7.20
2022-07-25T03:05:40.186Z,7.20
2022-07-25T03:07:48.603Z,5.60
2022-07-25T03:09:53.111Z,13.20
2022-07-25T03:11:57.475Z,6.55
2022-07-25T03:14:06.060Z,7.28
2022-07-25T03:16:12.184Z,7.57
2022-07-25T03:18:17.756Z,4.63
2022-07-25T03:20:26.061Z,7.07
2022-07-25T03:22:30.571Z,6.05
2022-07-25T03:24:35.056Z,6.07
2022-07-25T03:26:41.355Z,11.45
2022-07-25T03:28:47.095Z,15.45
2022-07-25T03:30:52.426Z,9.95
2022-07-25T03:32:59.404Z,12.65
2022-07-25T03:35:04.174Z,15.02
2022-07-25T03:37:09.604Z,11.45
2022-07-25T03:39:15.541Z,10.48
2022-07-25T03:41:20.227Z,14.43
2022-07-25T03:43:24.511Z,11.40
2022-07-25T03:45:31.469Z,9.40
2022-07-25T03:47:36.114Z,10.20
2022-07-25T03:49:42.702Z,8.85
2022-07-25T03:51:48.985Z,5.82
2022-07-25T03:54:03.606Z,5.50
2022-07-25T03:56:09.055Z,4.70
2022-07-25T03:58:18.110Z,3.67
2022-07-25T04:00:22.621Z,4.32
2022-07-25T04:02:27.359Z,3.97
2022-07-25T04:04:33.975Z,3.65
2022-07-25T04:06:38.951Z,4.32
2022-07-25T04:08:43.562Z,4.47
2022-07-25T04:10:52.486Z,4.32
2022-07-25T04:12:56.847Z,2.35
2022-07-25T04:15:02.701Z,5.65
2022-07-25T04:17:09.492Z,9.52
2022-07-25T04:19:14.382Z,23.13
2022-07-25T04:21:19.727Z,36.45
2022-07-25T04:23:26.320Z,30.33
2022-07-25T04:25:31.920Z,15.18
2022-07-25T04:27:36.397Z,9.45
2022-07-25T04:29:43.280Z,4.93
2022-07-25T04:31:47.606Z,3.10
2022-07-25T04:33:52.249Z,4.05
2022-07-25T04:36:00.439Z,4.20
2022-07-25T04:38:07.659Z,3.47
2022-07-25T04:40:17.686Z,3.72
2022-07-25T04:42:26.460Z,4.20
2022-07-25T04:44:31.145Z,2.75
2022-07-25T04:46:36.082Z,1.98
2022-07-25T04:48:40.927Z,2.85
2022-07-25T04:50:46.649Z,3.30
2022-07-25T04:52:51.249Z,3.88
2022-07-25T04:54:55.653Z,14.02
2022-07-25T04:57:01.149Z,7.22
2022-07-25T04:59:06.874Z,22.30
2022-07-25T05:01:16.239Z,22.30
2022-07-25T05:03:20.922Z,13.30
2022-07-25T05:05:25.712Z,4.72
2022-07-25T05:07:36.612Z,3.72
2022-07-25T05:09:41.019Z,3.55
2022-07-25T05:11:49.475Z,4.95
2022-07-25T05:13:59.947Z,8.35
2022-07-25T05:16:04.957Z,4.25
2022-07-25T05:18:09.478Z,2.45
2022-07-25T05:20:18.325Z,3.10
2022-07-25T05:22:27.996Z,2.75
2022-07-25T05:24:39.574Z,1.42
2022-07-25T05:26:48.393Z,2.25
2022-07-25T05:28:52.697Z,4.55
2022-07-25T05:30:57.598Z,2.83
2022-07-25T05:33:06.049Z,2.17
2022-07-25T05:35:11.149Z,1.60
2022-07-25T05:37:15.685Z,2.75
2022-07-25T05:39:22.298Z,2.10
2022-07-25T05:41:27.085Z,3.78
2022-07-25T05:43:31.721Z,2.90
2022-07-25T05:45:37.979Z,3.55
2022-07-25T05:47:43.089Z,2.70
2022-07-25T05:49:47.483Z,3.17
2022-07-25T05:51:51.948Z,2.92
2022-07-25T05:53:56.206Z,2.47
2022-07-25T05:56:00.539Z,2.50
2022-07-25T05:58:07.365Z,3.47
2022-07-25T06:00:12.381Z,3.72
2022-07-25T06:02:16.946Z,1.83
2022-07-25T06:04:27.124Z,3.00
2022-07-25T06:06:33.751Z,2.00
2022-07-25T06:08:38.628Z,3.15
2022-07-25T06:10:43.681Z,2.63
2022-07-25T06:12:49.647Z,3.00
2022-07-25T06:14:54.638Z,1.73
2022-07-25T06:16:59.358Z,1.73
2022-07-25T06:19:04.111Z,1.60
2022-07-25T06:21:08.797Z,1.70
2022-07-25T06:23:13.500Z,2.90
2022-07-25T06:25:18.001Z,2.47
2022-07-25T06:27:27.403Z,3.15
2022-07-25T06:29:35.699Z,1.75
2022-07-25T06:31:40.455Z,2.38
2022-07-25T06:33:45.900Z,1.63
2022-07-25T06:35:54.904Z,3.67
2022-07-25T06:37:59.177Z,2.80
2022-07-25T06:40:03.721Z,2.05
2022-07-25T06:42:11.753Z,2.35
2022-07-25T06:44:16.423Z,1.60
2022-07-25T06:46:20.921Z,3.13
2022-07-25T06:48:27.858Z,2.20
2022-07-25T06:50:32.706Z,2.90
2022-07-25T06:52:37.012Z,2.47
2022-07-25T06:54:41.727Z,3.50
2022-07-25T06:56:46.569Z,2.72
2022-07-25T06:58:51.065Z,2.10
2022-07-25T07:01:00.073Z,1.90
2022-07-25T07:03:04.718Z,1.88
2022-07-25T07:05:10.848Z,2.25
2022-07-25T07:07:19.930Z,1.98
2022-07-25T07:09:24.458Z,1.55
2022-07-25T07:11:28.753Z,2.35
2022-07-25T07:13:37.171Z,2.15
2022-07-25T07:15:42.325Z,3.67
2022-07-25T07:17:47.202Z,1.98
2022-07-25T07:19:52.736Z,3.20
2022-07-25T07:21:57.974Z,2.05
2022-07-25T07:24:03.199Z,3.35
2022-07-25T07:26:17.470Z,3.13
2022-07-25T07:28:22.099Z,1.55
2022-07-25T07:30:43.040Z,3.00
2022-07-25T07:32:51.403Z,1.90
2022-07-25T07:34:55.632Z,2.20
2022-07-25T07:36:59.928Z,3.03
2022-07-25T07:39:08.539Z,3.45
2022-07-25T07:41:13.834Z,3.92
2022-07-25T07:43:18.113Z,3.55
2022-07-25T07:45:26.307Z,2.72
2022-07-25T07:47:30.713Z,1.92
2022-07-25T07:49:36.940Z,2.88
2022-07-25T07:51:43.827Z,2.00
2022-07-25T07:54:02.952Z,3.80
2022-07-25T07:56:07.443Z,2.90
2022-07-25T07:58:19.413Z,2.17
2022-07-25T08:00:24.224Z,2.40
2022-07-25T08:02:28.852Z,2.65
2022-07-25T08:04:37.260Z,1.60
2022-07-25T08:06:43.971Z,2.55
2022-07-25T08:08:48.624Z,2.75
2022-07-25T08:10:58.967Z,2.92
2022-07-25T08:13:05.257Z,2.20
2022-07-25T08:15:10.644Z,2.40
2022-07-25T08:17:17.351Z,2.35
2022-07-25T08:19:23.105Z,3.45
2022-07-25T08:21:27.622Z,4.40
2022-07-25T08:23:38.556Z,1.95
2022-07-25T08:25:43.154Z,5.32
2022-07-25T08:27:47.930Z,3.70
2022-07-25T08:29:56.365Z,1.85
2022-07-25T08:32:01.031Z,3.45
2022-07-25T08:34:05.742Z,3.70
2022-07-25T08:36:14.588Z,3.05
2022-07-25T08:38:19.499Z,2.47
2022-07-25T08:40:24.802Z,2.88
2022-07-25T08:42:33.657Z,2.40
2022-07-25T08:44:39.186Z,3.42
2022-07-25T08:46:43.628Z,1.83
2022-07-25T08:48:50.321Z,1.70
2022-07-25T08:50:55.683Z,1.85
2022-07-25T08:53:30.478Z,3.40
2022-07-25T08:55:28.824Z,1.60
2022-07-25T08:57:33.231Z,2.35
2022-07-25T08:59:37.573Z,1.63
2022-07-25T09:01:45.959Z,3.63
2022-07-25T09:03:50.441Z,2.65
2022-07-25T09:05:55.116Z,2.47
2022-07-25T09:08:14.333Z,2.40
2022-07-25T09:10:24.314Z,2.47
2022-07-25T09:12:32.486Z,2.75
2022-07-25T09:14:46.532Z,1.83
2022-07-25T09:16:51.606Z,2.72
2022-07-25T09:19:06.722Z,2.22
2022-07-25T09:21:15.337Z,5.25
2022-07-25T09:23:35.855Z,1.55
2022-07-25T09:25:40.459Z,2.40
2022-07-25T09:27:47.517Z,3.28
2022-07-25T09:29:54.123Z,2.97
2022-07-25T09:31:59.404Z,3.42
2022-07-25T09:34:11.132Z,2.75
2022-07-25T09:36:17.418Z,3.47
2022-07-25T09:38:21.983Z,5.07
2022-07-25T09:40:28.409Z,2.63
2022-07-25T09:42:33.697Z,4.00
2022-07-25T09:44:38.070Z,1.70
2022-07-25T09:46:45.018Z,2.40
2022-07-25T09:48:49.656Z,5.55
2022-07-25T09:50:54.930Z,4.80
2022-07-25T09:53:04.955Z,2.95
2022-07-25T09:55:12.025Z,2.50
2022-07-25T09:57:16.759Z,3.55
2022-07-25T09:59:21.518Z,2.35
2022-07-25T10:01:29.601Z,5.18
2022-07-25T10:03:49.898Z,4.60
2022-07-25T10:06:18.982Z,5.65
2022-07-25T10:08:25.648Z,2.97
2022-07-25T10:10:31.885Z,3.05
2022-07-25T10:12:39.368Z,3.03
2022-07-25T10:14:54.005Z,4.53
2022-07-25T10:16:58.723Z,4.28
2022-07-25T10:19:05.415Z,5.28
2022-07-25T10:21:25.473Z,3.22
2022-07-25T10:23:30.388Z,2.80
2022-07-25T10:25:35.173Z,4.13
2022-07-25T10:27:45.119Z,4.03
2022-07-25T10:29:54.266Z,3.38
2022-07-25T10:32:08.801Z,5.00
2022-07-25T10:34:15.252Z,4.75
2022-07-25T10:36:20.350Z,4.40
2022-07-25T10:38:32.089Z,2.50
2022-07-25T10:40:39.705Z,2.20
2022-07-25T10:42:46.866Z,2.67
2022-07-25T10:44:55.236Z,2.75
2022-07-25T10:47:13.443Z,3.97
2022-07-25T10:49:31.744Z,2.42
2022-07-25T10:51:42.023Z,4.32
2022-07-25T10:53:48.808Z,3.20
2022-07-25T10:56:06.486Z,3.63
2022-07-25T10:58:17.991Z,2.30
2022-07-25T11:00:22.777Z,2.30
2022-07-25T11:02:38.361Z,3.20
2022-07-25T11:04:42.925Z,3.55
2022-07-25T11:06:49.298Z,3.53
2022-07-25T11:09:01.488Z,3.17
2022-07-25T11:11:08.184Z,6.32
2022-07-25T11:13:16.606Z,3.42
2022-07-25T11:15:25.749Z,4.93
2022-07-25T11:17:37.859Z,3.53
2022-07-25T11:19:48.194Z,3.35
2022-07-25T11:21:56.735Z,3.30
2022-07-25T11:24:03.435Z,4.82
2022-07-25T11:26:14.529Z,3.88
2022-07-25T11:28:32.906Z,15.23
2022-07-25T11:30:44.377Z,6.22
2022-07-25T11:33:00.754Z,10.80
2022-07-25T11:35:08.611Z,11.07
2022-07-25T11:37:14.723Z,21.40
2022-07-25T11:39:24.724Z,19.10
2022-07-25T11:41:30.986Z,20.38
2022-07-25T11:43:37.361Z,15.93
2022-07-25T11:45:43.032Z,38.40
2022-07-25T11:47:49.844Z,25.00
2022-07-25T11:49:55.470Z,16.85
2022-07-25T11:51:59.939Z,9.98
2022-07-25T11:54:09.741Z,11.95
2022-07-25T11:56:41.441Z,17.23
2022-07-25T11:58:50.951Z,7.65
2022-07-25T12:00:55.308Z,9.00
2022-07-25T12:03:12.975Z,5.63
2022-07-25T12:05:22.108Z,9.18
2022-07-25T12:07:51.065Z,5.22
2022-07-25T12:09:59.121Z,6.55
2022-07-25T12:12:06.008Z,5.18
2022-07-25T12:14:10.867Z,7.07
2022-07-25T12:16:16.820Z,8.30
2022-07-25T12:18:21.110Z,10.77
2022-07-25T12:20:27.263Z,7.43
2022-07-25T12:22:33.845Z,7.32
2022-07-25T12:24:40.730Z,12.40
2022-07-25T12:26:45.080Z,16.80
2022-07-25T12:28:51.840Z,11.77
2022-07-25T12:30:58.200Z,11.95
2022-07-25T12:33:03.050Z,7.45
2022-07-25T12:35:09.021Z,7.72
2022-07-25T12:37:13.883Z,6.55
2022-07-25T12:39:18.432Z,6.07
2022-07-25T12:41:24.725Z,5.93
2022-07-25T12:43:31.049Z,6.13
2022-07-25T12:45:35.660Z,4.60
2022-07-25T12:47:42.302Z,3.35
2022-07-25T12:49:47.132Z,3.78
2022-07-25T12:51:56.098Z,5.78
2022-07-25T12:54:02.632Z,3.45
2022-07-25T12:56:07.396Z,4.60
2022-07-25T12:58:12.622Z,3.78
2022-07-25T13:00:18.933Z,5.18
2022-07-25T13:02:25.614Z,5.60
2022-07-25T13:04:30.699Z,8.52
2022-07-25T13:06:38.767Z,8.35
2022-07-25T13:08:46.479Z,5.78
2022-07-25T13:10:50.778Z,5.65
2022-07-25T13:12:57.288Z,5.20
2022-07-25T13:15:03.745Z,4.53
2022-07-25T13:17:08.293Z,7.40
2022-07-25T13:19:13.117Z,7.07
2022-07-25T13:21:21.196Z,5.47
2022-07-25T13:23:26.042Z,5.32
2022-07-25T13:25:32.624Z,5.10
2022-07-25T13:27:38.376Z,6.28
2022-07-25T13:29:42.926Z,6.00
2022-07-25T13:31:50.550Z,7.22
2022-07-25T13:33:57.515Z,5.82
2022-07-25T13:36:02.056Z,5.13
2022-07-25T13:38:08.606Z,6.53
2022-07-25T13:40:15.430Z,9.38
2022-07-25T13:42:19.807Z,7.35
2022-07-25T13:44:25.749Z,7.82
2022-07-25T13:46:32.863Z,5.85
2022-07-25T13:48:38.074Z,6.00
2022-07-25T13:50:45.255Z,7.50
2022-07-25T13:52:51.500Z,7.10
2022-07-25T13:54:56.162Z,6.32
2022-07-25T13:57:01.728Z,6.88
2022-07-25T13:59:08.185Z,6.97
2022-07-25T14:01:14.689Z,6.38
2022-07-25T14:03:19.283Z,4.82
2022-07-25T14:05:25.756Z,6.55
2022-07-25T14:07:30.296Z,4.63
2022-07-25T14:09:37.167Z,8.15
2022-07-25T14:11:43.511Z,6.95
2022-07-25T14:13:49.222Z,7.95
2022-07-25T14:15:55.922Z,5.93
2022-07-25T14:18:00.307Z,6.05
2022-07-25T14:20:04.788Z,5.80
2022-07-25T14:22:09.487Z,5.70
2022-07-25T14:24:15.926Z,4.97
2022-07-25T14:26:20.701Z,5.90
2022-07-25T14:28:27.196Z,7.45
2022-07-25T14:30:33.833Z,7.32
2022-07-25T14:32:38.321Z,9.02
2022-07-25T14:34:45.197Z,7.15
2022-07-25T14:36:51.622Z,12.35
2022-07-25T14:38:56.360Z,9.95
2022-07-25T14:41:01.877Z,8.05
2022-07-25T14:43:06.448Z,7.32
2022-07-25T14:45:11.258Z,8.93
2022-07-25T14:47:18.399Z,7.57
2022-07-25T14:49:25.164Z,12.45
2022-07-25T14:51:30.306Z,9.77
2022-07-25T14:53:38.044Z,8.68
2022-07-25T14:55:44.453Z,10.60
2022-07-25T14:57:49.197Z,11.05
2022-07-25T14:59:55.705Z,15.00
2022-07-25T15:02:04.932Z,14.32
2022-07-25T15:04:10.547Z,12.05
2022-07-25T15:06:17.537Z,14.38
2022-07-25T15:08:22.252Z,11.48
2022-07-25T15:10:27.123Z,15.90
2022-07-25T15:12:33.871Z,10.98
2022-07-25T15:14:40.596Z,11.10
2022-07-25T15:16:45.662Z,8.68
2022-07-25T15:19:15.309Z,13.23
2022-07-25T15:21:18.917Z,11.77
2022-07-25T15:23:28.662Z,12.98
2022-07-25T15:28:03.869Z,11.60
2022-07-25T15:30:09.154Z,20.23
2022-07-25T15:32:15.953Z,17.55
2022-07-25T15:34:22.490Z,16.70
2022-07-25T15:36:29.500Z,19.55
2022-07-25T15:38:36.499Z,13.90
2022-07-25T15:40:43.178Z,15.52
2022-07-25T15:42:48.288Z,12.05
2022-07-25T15:45:15.267Z,15.55
2022-07-25T15:47:21.428Z,11.40
2022-07-25T15:49:26.090Z,12.73
2022-07-25T15:51:33.001Z,18.38
2022-07-25T15:53:39.251Z,16.98
2022-07-25T15:55:44.107Z,20.10
2022-07-25T15:57:48.533Z,17.30
2022-07-25T15:59:55.404Z,16.27
2022-07-25T16:02:00.111Z,18.27
2022-07-25T16:04:08.770Z,17.30
2022-07-25T16:06:18.913Z,22.98
2022-07-25T16:08:23.587Z,20.70
2022-07-25T16:10:31.477Z,19.40
2022-07-25T16:12:38.026Z,20.67
2022-07-25T16:14:42.552Z,20.00
2022-07-25T16:16:49.187Z,15.00
2022-07-25T16:18:55.946Z,15.60
2022-07-25T16:21:01.065Z,15.90
2022-07-25T16:23:07.723Z,14.48
2022-07-25T16:25:15.476Z,12.38
2022-07-25T16:27:19.843Z,11.10
2022-07-25T16:29:26.314Z,12.80
2022-07-25T16:31:33.215Z,13.05
2022-07-25T16:33:37.701Z,14.07
2022-07-25T16:35:44.656Z,12.05
2022-07-25T16:37:51.083Z,12.50
2022-07-25T16:39:55.601Z,7.72
2022-07-25T16:42:02.177Z,13.60
2022-07-25T16:44:09.092Z,8.40
2022-07-25T16:46:13.520Z,11.73
2022-07-25T16:48:20.225Z,8.18
2022-07-25T16:50:27.298Z,13.60
2022-07-25T16:52:31.687Z,10.82
2022-07-25T16:54:38.212Z,10.77
2022-07-25T16:56:44.629Z,11.40
2022-07-25T16:58:49.333Z,16.92
2022-07-25T17:00:56.091Z,8.40
2022-07-25T17:03:02.433Z,9.68
2022-07-25T17:05:09.209Z,10.18
2022-07-25T17:07:16.027Z,10.65
2022-07-25T17:09:22.767Z,9.10
2022-07-25T17:11:28.304Z,12.45
2022-07-25T17:13:35.094Z,12.38
2022-07-25T17:15:41.730Z,10.68
2022-07-25T17:17:46.450Z,11.88
2022-07-25T17:19:56.676Z,12.05
2022-07-25T17:22:08.105Z,10.48
2022-07-25T17:24:12.447Z,11.32
2022-07-25T17:26:19.401Z,11.32
2022-07-25T17:28:25.708Z,11.52
2022-07-25T17:30:31.748Z,9.65
2022-07-25T17:32:38.661Z,13.23
2022-07-25T17:34:45.050Z,10.65
2022-07-25T17:36:49.735Z,10.05
2022-07-25T17:38:56.238Z,10.20
2022-07-25T17:41:03.046Z,8.45
2022-07-25T17:43:07.595Z,10.55
2022-07-25T17:45:13.938Z,8.60
2022-07-25T17:47:20.245Z,10.35
2022-07-25T17:49:24.664Z,9.45
2022-07-25T17:51:31.294Z,12.30
2022-07-25T17:53:37.667Z,13.02
2022-07-25T17:55:45.341Z,9.48
2022-07-25T17:57:56.117Z,10.02
2022-07-25T18:00:02.548Z,8.88
2022-07-25T18:02:15.766Z,9.30
2022-07-25T18:04:22.965Z,11.43
2022-07-25T18:06:32.010Z,12.13
2022-07-25T18:08:37.058Z,11.00
2022-07-25T18:19:14.129Z,10.60
2022-07-25T18:21:19.972Z,9.48
2022-07-25T18:23:37.731Z,8.68
2022-07-25T18:25:46.342Z,9.65
2022-07-25T18:27:51.487Z,7.78
2022-07-25T18:29:56.490Z,11.23
2022-07-25T18:32:06.284Z,10.10
2022-07-25T18:34:18.680Z,9.85
2022-07-25T18:36:33.504Z,7.80
2022-07-25T18:38:41.704Z,8.95
2022-07-25T18:41:06.542Z,9.65
2022-07-25T18:43:18.493Z,9.02
2022-07-25T18:45:33.252Z,10.32
2022-07-25T18:47:42.753Z,12.68
2022-07-25T18:49:48.132Z,11.70
2022-07-25T18:51:56.241Z,9.50
2022-07-25T18:54:04.353Z,8.25
2022-07-25T18:56:13.720Z,10.85
2022-07-25T18:58:32.858Z,10.23
2022-07-25T19:00:48.263Z,12.20
2022-07-25T19:02:59.754Z,10.07
2022-07-25T19:05:07.403Z,6.70
2022-07-25T19:07:18.229Z,8.77
2022-07-25T19:09:26.977Z,9.35
2022-07-25T19:11:41.672Z,11.32
2022-07-25T19:13:50.980Z,9.05
2022-07-25T19:15:56.738Z,8.05
2022-07-25T19:18:07.301Z,8.68
2022-07-25T19:20:15.965Z,7.57
2022-07-25T19:22:22.172Z,10.60
2022-07-25T19:24:31.179Z,7.93
2022-07-25T19:26:39.706Z,6.75
2022-07-25T19:28:45.498Z,8.00
2022-07-25T19:30:58.977Z,7.65
2022-07-25T19:33:07.591Z,11.27
2022-07-25T19:35:17.266Z,8.18
2022-07-25T19:37:26.938Z,9.68
2022-07-25T19:39:34.483Z,9.65
2022-07-25T19:41:44.667Z,8.40
2022-07-25T19:43:55.505Z,10.80
2022-07-25T19:46:03.152Z,11.40
2022-07-25T19:48:13.420Z,11.80
2022-07-25T19:50:31.874Z,8.18
2022-07-25T19:52:40.541Z,10.13
2022-07-25T19:54:45.973Z,9.88
2022-07-25T19:56:57.131Z,12.82
2022-07-25T19:59:06.157Z,7.63
2022-07-25T20:01:14.157Z,9.95
2022-07-25T20:03:28.874Z,8.77
2022-07-25T20:05:36.743Z,8.95
2022-07-25T20:07:53.958Z,8.32
2022-07-25T20:10:01.886Z,6.50
2022-07-25T20:12:09.907Z,7.75
2022-07-25T20:14:19.687Z,8.77
2022-07-25T20:16:31.918Z,8.27
2022-07-25T20:18:37.458Z,13.10
2022-07-25T20:20:42.428Z,11.13
2022-07-25T20:22:49.558Z,10.68
2022-07-25T20:24:55.727Z,14.30
2022-07-25T20:27:06.429Z,10.93
2022-07-25T20:29:17.077Z,13.20
2022-07-25T20:31:28.376Z,11.93
2022-07-25T20:33:33.831Z,15.35
2022-07-25T20:35:43.425Z,14.70
2022-07-25T20:37:52.313Z,9.13
2022-07-25T20:39:58.182Z,11.10
2022-07-25T20:42:04.818Z,11.45
2022-07-25T20:44:12.205Z,13.15
2022-07-25T20:46:22.058Z,12.43
2022-07-25T20:48:30.288Z,11.77
2022-07-25T20:50:38.913Z,16.02
2022-07-25T20:52:43.407Z,26.85
2022-07-25T20:54:50.387Z,14.80
2022-07-25T20:56:57.368Z,14.88
2022-07-25T20:59:03.280Z,13.93
2022-07-25T21:01:10.561Z,12.98
2022-07-25T21:03:16.699Z,12.90
2022-07-25T21:05:22.290Z,12.70
2022-07-25T21:07:27.807Z,10.43
2022-07-25T21:09:36.595Z,12.43
2022-07-25T21:11:41.272Z,11.80
2022-07-25T21:13:48.083Z,12.65
2022-07-25T21:15:54.290Z,11.38
2022-07-25T21:17:59.158Z,10.10
2022-07-25T21:20:06.069Z,12.68
2022-07-25T21:22:10.792Z,13.02
2022-07-25T21:24:15.114Z,14.10
2022-07-25T21:26:22.686Z,11.70
2022-07-25T21:28:28.980Z,9.93
2022-07-25T21:30:34.171Z,12.15
2022-07-25T21:32:42.506Z,13.60
2022-07-25T21:34:47.418Z,15.07
2022-07-25T21:36:51.751Z,12.23
2022-07-25T21:38:59.403Z,13.77
2022-07-25T21:41:03.777Z,14.95
2022-07-25T21:43:09.284Z,13.55
2022-07-25T21:45:19.950Z,15.50
2022-07-25T21:47:26.188Z,15.05
2022-07-25T21:49:42.883Z,15.85
2022-07-25T21:51:49.585Z,11.15
2022-07-25T21:53:55.845Z,14.27
2022-07-25T21:56:00.140Z,13.73
2022-07-25T21:58:06.782Z,19.70
2022-07-25T22:00:12.967Z,15.63
2022-07-25T22:02:20.573Z,16.92
2022-07-25T22:04:27.701Z,25.50
2022-07-25T22:06:33.993Z,28.88
2022-07-25T22:08:38.570Z,18.25
2022-07-25T22:10:47.532Z,14.07
2022-07-25T22:12:53.951Z,11.13
2022-07-25T22:14:58.422Z,10.82
2022-07-25T22:17:06.117Z,16.20
2022-07-25T22:19:12.252Z,9.52
2022-07-25T22:21:16.932Z,9.38
2022-07-25T22:23:25.030Z,16.88
2022-07-25T22:25:31.305Z,19.20
2022-07-25T22:27:35.983Z,13.57
2022-07-25T22:29:42.523Z,12.45
2022-07-25T22:31:49.394Z,13.50
2022-07-25T22:33:53.951Z,15.10
2022-07-25T22:36:00.965Z,14.88
2022-07-25T22:38:08.181Z,13.70
2022-07-25T22:40:13.510Z,15.23
2022-07-25T22:42:29.660Z,13.32
2022-07-25T22:44:35.943Z,12.77
2022-07-25T22:46:40.616Z,13.00
2022-07-25T22:48:47.226Z,13.15
2022-07-25T22:50:53.894Z,13.23
2022-07-25T22:52:58.629Z,15.23
2022-07-25T22:55:05.115Z,15.55
2022-07-25T22:57:11.405Z,14.98
2022-07-25T22:59:17.205Z,11.52
2022-07-25T23:01:22.165Z,16.45
2022-07-25T23:03:26.718Z,16.17
2022-07-25T23:05:40.322Z,13.30
2022-07-25T23:07:45.083Z,13.65
2022-07-25T23:09:51.398Z,14.02
2022-07-25T23:11:56.085Z,13.38
2022-07-25T23:14:04.748Z,13.60
2022-07-25T23:16:11.031Z,16.83
2022-07-25T23:18:15.947Z,19.67
2022-07-25T23:20:22.351Z,17.38
2022-07-25T23:22:29.395Z,17.73
2022-07-25T23:24:37.453Z,19.27
2022-07-25T23:26:44.545Z,17.35
2022-07-25T23:28:50.572Z,13.15
2022-07-25T23:30:55.507Z,23.45
2022-07-25T23:33:02.113Z,13.38
2022-07-25T23:35:07.256Z,15.30
2022-07-25T23:37:11.779Z,13.60
2022-07-25T23:39:18.730Z,18.75
2022-07-25T23:41:23.257Z,16.08
2022-07-25T23:43:57.428Z,12.20
2022-07-25T23:45:53.871Z,12.05
2022-07-25T23:47:59.020Z,14.85
2022-07-25T23:50:03.928Z,11.65
2022-07-25T23:52:10.530Z,13.00
2022-07-25T23:54:17.145Z,14.85
2022-07-25T23:56:22.407Z,16.77
2022-07-25T23:58:29.760Z,14.60
